createdAt,value
2018-12-20T06:39:15.214Z,40.67
2018-12-20T06:41:44.102Z,35.83
2018-12-20T06:44:16.046Z,32.73
2018-12-20T06:47:02.202Z,37.98
2018-12-20T06:49:35.310Z,40.90
2018-12-20T06:52:04.195Z,37.58
2018-12-20T06:54:33.038Z,39.58
2018-12-20T06:57:11.426Z,41.00
2018-12-20T06:59:41.122Z,34.75
2018-12-20T07:02:09.919Z,38.08
2018-12-20T07:04:38.717Z,40.85
2018-12-20T07:07:08.511Z,41.73
2018-12-20T07:09:38.330Z,40.25
2018-12-20T07:12:09.087Z,42.80
2018-12-20T07:14:37.926Z,40.08
2018-12-20T07:17:10.330Z,40.52
2018-12-20T07:19:41.031Z,35.85
2018-12-20T07:22:11.819Z,36.38
2018-12-20T07:24:43.639Z,44.58
2018-12-20T07:27:12.438Z,43.42
2018-12-20T07:30:07.763Z,48.73
2018-12-20T07:32:42.471Z,42.30
2018-12-20T07:35:12.187Z,41.90
2018-12-20T07:38:06.223Z,45.12
2018-12-20T07:40:35.059Z,46.50
2018-12-20T07:43:11.342Z,44.25
2018-12-20T07:45:47.123Z,47.93
2018-12-20T07:48:20.199Z,44.08
2018-12-20T07:50:48.983Z,47.45
2018-12-20T07:53:26.254Z,47.50
2018-12-20T07:56:00.447Z,51.88
2018-12-20T07:58:33.335Z,54.60
2018-12-20T08:01:04.227Z,50.48
2018-12-20T08:03:36.747Z,57.25
2018-12-20T08:06:07.619Z,52.10
2018-12-20T08:08:37.372Z,54.27
2018-12-20T08:11:11.667Z,56.90
2018-12-20T08:13:41.393Z,53.15
2018-12-20T08:16:16.127Z,57.17
2018-12-20T08:18:50.735Z,56.28
2018-12-20T08:21:26.147Z,58.48
2018-12-20T08:23:58.247Z,64.32
2018-12-20T08:26:28.131Z,62.30
2018-12-20T08:29:07.679Z,69.03
2018-12-20T08:31:37.447Z,65.83
2018-12-20T08:34:08.211Z,62.23
2018-12-20T08:36:40.992Z,69.32
2018-12-20T08:39:13.639Z,64.92
2018-12-20T08:41:56.772Z,59.40
2018-12-20T08:44:39.375Z,62.25
2018-12-20T08:47:20.538Z,64.45
2018-12-20T08:49:59.137Z,66.90
2018-12-20T08:52:47.151Z,70.55
2018-12-20T08:55:28.447Z,67.20
2018-12-20T08:57:57.247Z,70.78
2018-12-20T09:00:31.979Z,62.73
2018-12-20T09:03:07.711Z,60.43
2018-12-20T09:05:51.087Z,58.45
2018-12-20T09:08:19.971Z,62.98
2018-12-20T09:10:55.657Z,70.57
2018-12-20T09:13:41.815Z,62.75
2018-12-20T09:16:10.642Z,57.67
2018-12-20T09:18:39.476Z,61.45
2018-12-20T09:21:08.311Z,65.95
2018-12-20T09:23:37.099Z,51.28
2018-12-20T09:26:05.930Z,44.63
2018-12-20T09:28:41.563Z,40.17
2018-12-20T09:31:10.364Z,42.83
2018-12-20T09:33:45.042Z,41.70
2018-12-20T09:36:14.799Z,44.98
2018-12-20T09:38:57.076Z,41.90
2018-12-20T09:41:25.925Z,43.30
2018-12-20T09:44:26.816Z,40.85
2018-12-20T09:47:11.645Z,37.42
2018-12-20T09:49:41.922Z,36.50
2018-12-20T09:52:11.680Z,34.58
2018-12-20T09:54:53.064Z,39.63
2018-12-20T09:57:34.748Z,32.63
2018-12-20T10:00:09.743Z,42.00
2018-12-20T10:02:48.312Z,34.27
2018-12-20T10:05:19.041Z,38.30
2018-12-20T10:07:47.864Z,37.13
2018-12-20T10:10:33.168Z,34.13
2018-12-20T10:13:02.036Z,32.20
2018-12-20T10:15:31.764Z,33.90
2018-12-20T10:18:01.584Z,30.17
2018-12-20T10:20:40.495Z,28.92
2018-12-20T10:23:11.198Z,31.85
2018-12-20T10:25:44.270Z,27.40
2018-12-20T10:28:18.896Z,26.05
2018-12-20T10:30:52.568Z,29.92
2018-12-20T10:33:25.304Z,25.17
2018-12-20T10:36:08.808Z,25.00
2018-12-20T10:38:45.608Z,29.72
2018-12-20T10:41:14.434Z,24.82
2018-12-20T10:43:43.302Z,25.80
2018-12-20T10:46:12.140Z,27.02
2018-12-20T10:48:41.012Z,22.27
2018-12-20T10:51:11.748Z,25.70
2018-12-20T10:53:44.976Z,24.45
2018-12-20T10:56:13.785Z,20.45
2018-12-20T10:58:44.521Z,20.00
2018-12-20T11:01:19.648Z,20.25
2018-12-20T11:04:08.005Z,21.45
2018-12-20T11:06:47.259Z,19.50
2018-12-20T11:09:22.552Z,20.75
2018-12-20T11:12:08.886Z,18.92
2018-12-20T11:14:57.835Z,19.23
2018-12-20T11:17:37.349Z,18.92
2018-12-20T11:20:05.343Z,17.57
2018-12-20T11:22:34.222Z,16.70
2018-12-20T11:25:07.740Z,16.65
2018-12-20T11:27:54.576Z,18.23
2018-12-20T11:30:26.876Z,16.80
2018-12-20T11:33:01.448Z,16.05
2018-12-20T11:35:32.180Z,19.48
2018-12-20T11:38:02.000Z,16.80
2018-12-20T11:40:31.808Z,16.02
2018-12-20T11:46:11.888Z,13.83
2018-12-20T11:48:40.692Z,15.60
2018-12-20T11:51:12.528Z,18.00
2018-12-20T11:54:04.491Z,15.83
2018-12-20T11:56:50.560Z,15.20
2018-12-20T11:59:22.601Z,17.12
2018-12-20T12:01:51.696Z,15.50
2018-12-20T12:04:20.665Z,14.35
2018-12-20T12:06:50.361Z,15.45
2018-12-20T12:09:26.408Z,17.87
2018-12-20T12:11:56.285Z,15.43
2018-12-20T12:14:31.688Z,13.53
2018-12-20T12:17:11.319Z,14.23
2018-12-20T12:19:40.172Z,15.55
2018-12-20T12:22:09.032Z,11.95
2018-12-20T12:24:42.596Z,13.55
2018-12-20T12:27:16.452Z,13.40
2018-12-20T12:29:54.908Z,13.48
2018-12-20T12:32:24.652Z,13.25
2018-12-20T12:34:54.503Z,13.83
2018-12-20T12:37:30.095Z,13.85
2018-12-20T12:39:59.884Z,12.07
2018-12-20T12:42:28.669Z,14.90
2018-12-20T12:45:02.659Z,12.68
2018-12-20T12:47:40.656Z,15.25
2018-12-20T12:50:19.508Z,12.75
2018-12-20T12:53:01.087Z,11.30
2018-12-20T12:55:30.776Z,10.75
2018-12-20T12:58:04.569Z,9.90
2018-12-20T13:00:34.716Z,12.60
2018-12-20T13:03:10.197Z,12.80
2018-12-20T13:05:50.636Z,14.00
2018-12-20T13:08:25.800Z,13.05
2018-12-20T13:10:58.385Z,12.82
2018-12-20T13:13:37.396Z,13.78
2018-12-20T13:16:10.424Z,13.35
2018-12-20T13:18:51.666Z,18.62
2018-12-20T13:21:20.520Z,16.10
2018-12-20T13:23:55.277Z,16.30
2018-12-20T13:26:36.040Z,14.87
2018-12-20T13:29:10.080Z,15.95
2018-12-20T13:31:40.040Z,14.70
2018-12-20T13:34:12.373Z,14.93
2018-12-20T13:36:47.848Z,15.43
2018-12-20T13:39:16.676Z,16.10
2018-12-20T13:41:51.196Z,14.30
2018-12-20T13:44:26.825Z,18.10
2018-12-20T13:47:20.265Z,15.95
2018-12-20T13:49:53.799Z,15.53
2018-12-20T13:52:26.448Z,15.70
2018-12-20T13:55:09.418Z,16.00
2018-12-20T13:57:39.264Z,13.15
2018-12-20T14:00:11.704Z,12.15
2018-12-20T14:02:44.104Z,15.93
2018-12-20T14:05:12.928Z,17.40
2018-12-20T14:07:41.792Z,22.82
2018-12-20T14:10:10.732Z,21.00
2018-12-20T14:12:39.561Z,25.23
2018-12-20T14:15:08.612Z,25.60
2018-12-20T14:17:37.508Z,29.07
2018-12-20T14:20:17.564Z,20.72
2018-12-20T14:22:49.740Z,24.75
2018-12-20T14:25:42.932Z,20.97
2018-12-20T14:28:15.068Z,18.50
2018-12-20T14:30:56.750Z,17.90
2018-12-20T14:33:37.721Z,14.35
2018-12-20T14:36:09.869Z,13.50
2018-12-20T14:38:48.713Z,13.93
2018-12-20T14:41:29.448Z,16.15
2018-12-20T14:44:19.064Z,12.90
2018-12-20T14:47:05.382Z,13.60
2018-12-20T14:49:47.664Z,14.38
2018-12-20T14:52:39.736Z,13.55
2018-12-20T14:55:16.292Z,14.15
2018-12-20T14:57:58.944Z,11.88
2018-12-20T15:00:44.474Z,14.60
2018-12-20T15:03:28.600Z,14.73
2018-12-20T15:06:12.424Z,12.30
2018-12-20T15:08:51.772Z,10.35
2018-12-20T15:11:39.942Z,11.33
2018-12-20T15:14:13.676Z,11.83
2018-12-20T15:16:46.252Z,8.85
2018-12-20T15:19:19.508Z,10.53
2018-12-20T15:22:08.691Z,13.00
2018-12-20T15:27:51.076Z,13.38
2018-12-20T15:30:26.992Z,8.88
2018-12-20T15:33:06.756Z,14.28
2018-12-20T15:35:42.652Z,14.13
2018-12-20T15:38:19.232Z,9.63
2018-12-20T15:41:02.124Z,12.95
2018-12-20T15:43:33.100Z,11.70
2018-12-20T15:46:05.789Z,9.55
2018-12-20T15:48:43.092Z,12.07
2018-12-20T15:51:23.872Z,9.98
2018-12-20T15:54:00.429Z,9.50
2018-12-20T15:56:35.391Z,8.98
2018-12-20T15:59:10.072Z,8.95
2018-12-20T16:01:38.892Z,8.78
2018-12-20T16:04:09.676Z,10.53
2018-12-20T16:06:47.428Z,7.72
2018-12-20T16:09:22.087Z,11.57
2018-12-20T16:11:50.920Z,10.80
2018-12-20T16:14:20.932Z,17.15
2018-12-20T16:17:08.724Z,10.08
2018-12-20T16:19:55.676Z,10.30
2018-12-20T16:22:29.848Z,11.57
2018-12-20T16:25:09.499Z,7.87
2018-12-20T16:27:47.191Z,8.93
2018-12-20T16:30:31.240Z,10.78
2018-12-20T16:33:10.356Z,10.58
2018-12-20T16:35:44.825Z,9.90
2018-12-20T16:38:14.600Z,11.53
2018-12-20T16:40:45.328Z,14.05
2018-12-20T16:43:26.820Z,9.05
2018-12-20T16:45:55.732Z,9.10
2018-12-20T16:48:24.676Z,9.25
2018-12-20T16:50:54.381Z,8.63
2018-12-20T16:53:24.204Z,12.58
2018-12-20T16:56:11.227Z,11.20
2018-12-20T16:58:42.113Z,9.00
2018-12-20T17:01:10.913Z,9.93
2018-12-20T17:03:40.668Z,8.95
2018-12-20T17:06:09.484Z,9.88
2018-12-20T17:08:47.799Z,15.10
2018-12-20T17:11:13.528Z,9.50
2018-12-20T17:13:43.272Z,13.78
2018-12-20T17:19:22.282Z,8.58
2018-12-20T17:21:57.904Z,13.43
2018-12-20T17:24:26.703Z,11.80
2018-12-20T17:27:00.721Z,14.28
2018-12-20T17:29:31.571Z,9.68
2018-12-20T17:32:08.861Z,21.73
2018-12-20T17:34:43.712Z,12.65
2018-12-20T17:37:24.368Z,9.95
2018-12-20T17:39:54.124Z,13.05
2018-12-20T17:42:29.544Z,9.20
2018-12-20T17:44:59.249Z,8.05
2018-12-20T17:47:33.192Z,8.03
2018-12-20T17:50:09.504Z,9.98
2018-12-20T17:52:50.068Z,9.73
2018-12-20T17:55:18.880Z,11.30
2018-12-20T17:57:48.683Z,10.58
2018-12-20T18:00:37.580Z,9.38
2018-12-20T18:03:07.384Z,10.48
2018-12-20T18:05:36.180Z,12.95
2018-12-20T18:08:24.080Z,12.65
2018-12-20T18:11:00.964Z,16.40
2018-12-20T18:13:33.941Z,17.07
2018-12-20T18:16:04.700Z,17.45
2018-12-20T18:18:40.328Z,10.95
2018-12-20T18:21:09.125Z,10.08
2018-12-20T18:23:48.420Z,16.85
2018-12-20T18:26:24.373Z,12.23
2018-12-20T18:28:54.053Z,8.48
2018-12-20T18:31:26.312Z,11.35
2018-12-20T18:34:02.548Z,8.58
2018-12-20T18:36:35.476Z,8.90
2018-12-20T18:39:08.412Z,7.37
2018-12-20T18:41:39.140Z,9.35
2018-12-20T18:44:08.860Z,11.08
2018-12-20T18:46:37.676Z,12.85
2018-12-20T18:49:10.084Z,8.98
2018-12-20T18:51:38.976Z,10.43
2018-12-20T18:54:08.740Z,13.00
2018-12-20T18:56:39.452Z,8.55
2018-12-20T18:59:09.149Z,7.83
2018-12-20T19:01:38.877Z,9.15
2018-12-20T19:04:07.704Z,6.10
2018-12-20T19:06:41.909Z,8.28
2018-12-20T19:09:12.702Z,7.65
2018-12-20T19:11:43.528Z,11.35
2018-12-20T19:14:13.224Z,8.35
2018-12-20T19:16:51.581Z,11.63
2018-12-20T19:19:20.468Z,5.72
2018-12-20T19:21:49.352Z,8.85
2018-12-20T19:24:46.508Z,5.78
2018-12-20T19:27:15.300Z,8.03
2018-12-20T19:30:00.592Z,10.38
2018-12-20T19:32:41.533Z,5.92
2018-12-20T19:35:27.069Z,5.47
2018-12-20T19:37:59.344Z,5.40
2018-12-20T19:40:32.002Z,10.88
2018-12-20T19:43:04.500Z,5.40
2018-12-20T19:45:48.652Z,5.78
2018-12-20T19:48:32.129Z,9.83
2018-12-20T19:51:07.430Z,7.85
2018-12-20T19:53:48.469Z,8.78
2018-12-20T19:56:22.941Z,5.80
2018-12-20T19:58:57.729Z,8.53
2018-12-20T20:01:26.667Z,5.80
2018-12-20T20:03:56.485Z,7.58
2018-12-20T20:06:30.597Z,6.45
2018-12-20T20:09:07.053Z,11.63
2018-12-20T20:11:36.889Z,9.08
2018-12-20T20:14:07.650Z,5.30
2018-12-20T20:16:39.749Z,8.38
2018-12-20T20:19:08.650Z,9.53
2018-12-20T20:21:37.478Z,5.70
2018-12-20T20:24:12.249Z,6.85
2018-12-20T20:26:41.058Z,6.47
2018-12-20T20:29:14.959Z,8.53
2018-12-20T20:32:01.919Z,5.22
2018-12-20T20:34:33.525Z,6.17
2018-12-20T20:37:09.750Z,5.72
2018-12-20T20:39:44.257Z,5.30
2018-12-20T20:42:20.386Z,5.15
2018-12-20T20:44:52.478Z,6.50
2018-12-20T20:47:21.558Z,5.42
2018-12-20T20:49:50.326Z,5.12
2018-12-20T20:52:24.738Z,5.37
2018-12-20T20:55:06.967Z,5.62
2018-12-20T20:57:37.714Z,5.85
2018-12-20T21:00:16.698Z,6.78
2018-12-20T21:02:57.378Z,5.65
2018-12-20T21:05:29.538Z,9.00
2018-12-20T21:08:04.282Z,5.62
2018-12-20T21:10:40.570Z,5.90
2018-12-20T21:13:09.378Z,10.63
2018-12-20T21:15:38.266Z,6.55
2018-12-20T21:18:09.098Z,8.13
2018-12-20T21:20:37.918Z,6.42
2018-12-20T21:23:09.470Z,5.92
2018-12-20T21:25:40.254Z,5.22
2018-12-20T21:28:14.862Z,7.78
2018-12-20T21:30:45.562Z,8.30
2018-12-20T21:33:16.334Z,6.45
2018-12-20T21:35:46.123Z,9.43
2018-12-20T21:38:18.709Z,7.37
2018-12-20T21:40:51.274Z,8.20
2018-12-20T21:43:21.116Z,5.83
2018-12-20T21:46:02.394Z,5.92
2018-12-20T21:48:31.243Z,6.62
2018-12-20T21:51:03.046Z,11.50
2018-12-20T21:53:31.842Z,4.83
2018-12-20T21:56:03.442Z,5.35
2018-12-20T21:58:32.346Z,5.83
2018-12-20T22:01:08.498Z,5.58
2018-12-20T22:03:42.398Z,7.67
2018-12-20T22:06:15.226Z,5.45
2018-12-20T22:08:49.826Z,6.65
2018-12-20T22:11:19.691Z,4.80
2018-12-20T22:13:51.046Z,5.80
2018-12-20T22:16:27.134Z,6.75
2018-12-20T22:18:57.966Z,4.95
2018-12-20T22:21:36.822Z,6.80
2018-12-20T22:24:07.558Z,4.10
2018-12-20T22:26:47.718Z,8.98
2018-12-20T22:29:17.478Z,5.22
2018-12-20T22:31:48.358Z,4.95
2018-12-20T22:34:17.143Z,4.85
2018-12-20T22:36:45.926Z,7.55
2018-12-20T22:39:15.707Z,5.92
2018-12-20T22:41:48.205Z,6.20
2018-12-20T22:44:22.814Z,4.83
2018-12-20T22:46:52.678Z,5.70
2018-12-20T22:49:27.854Z,4.00
2018-12-20T22:51:57.578Z,6.55
2018-12-20T22:54:34.466Z,9.23
2018-12-20T22:57:08.826Z,4.25
2018-12-20T22:59:57.975Z,5.65
2018-12-20T23:02:30.846Z,7.55
2018-12-20T23:04:59.642Z,3.80
2018-12-20T23:07:40.926Z,5.00
2018-12-20T23:10:11.766Z,4.12
2018-12-20T23:12:40.596Z,4.75
2018-12-20T23:15:09.491Z,5.95
2018-12-20T23:17:47.202Z,4.60
2018-12-20T23:20:18.018Z,6.50
2018-12-20T23:22:47.694Z,8.18
2018-12-20T23:25:16.514Z,7.75
2018-12-20T23:27:46.229Z,5.87
2018-12-20T23:30:16.950Z,7.75
2018-12-20T23:32:46.773Z,6.40
2018-12-20T23:41:22.691Z,8.65
2018-12-20T23:43:51.482Z,7.50
2018-12-20T23:46:35.966Z,11.93
2018-12-20T23:49:04.782Z,13.58
2018-12-20T23:51:33.611Z,6.70
2018-12-20T23:54:07.462Z,6.08
2018-12-20T23:56:46.051Z,7.37
2018-12-20T23:59:24.898Z,10.03
